createdAt,value
2022-10-23T00:01:33.015Z,4.06
2022-10-23T00:03:34.327Z,4.06
2022-10-23T00:05:35.516Z,4.06
2022-10-23T00:09:38.724Z,4.06
2022-10-23T00:11:39.745Z,4.06
2022-10-23T00:15:43.283Z,4.06
2022-10-23T00:17:44.673Z,4.06
2022-10-23T00:19:45.966Z,4.06
2022-10-23T00:21:47.745Z,4.06
2022-10-23T00:23:49.040Z,4.06
2022-10-23T00:25:50.996Z,4.06
2022-10-23T00:27:52.622Z,4.06
2022-10-23T00:31:55.656Z,4.05
2022-10-23T00:33:57.508Z,4.06
2022-10-23T00:35:59.385Z,4.06
2022-10-23T00:38:01.038Z,4.05
2022-10-23T00:42:03.303Z,4.06
2022-10-23T00:44:04.719Z,4.05
2022-10-23T00:48:08.026Z,4.05
2022-10-23T00:50:09.944Z,4.05
2022-10-23T00:52:11.780Z,4.05
2022-10-23T00:54:23.292Z,4.05
2022-10-23T00:58:16.607Z,4.05
2022-10-23T01:00:18.197Z,4.05
2022-10-23T01:02:19.745Z,4.05
2022-10-23T01:04:20.770Z,4.05
2022-10-23T01:06:22.333Z,4.05
2022-10-23T01:08:23.317Z,4.05
2022-10-23T01:10:25.032Z,4.05
2022-10-23T01:14:27.457Z,4.05
2022-10-23T01:16:28.571Z,4.05
2022-10-23T01:18:29.579Z,4.05
2022-10-23T01:20:30.814Z,4.05
2022-10-23T01:22:32.638Z,4.05
2022-10-23T01:24:34.292Z,4.05
2022-10-23T01:26:35.442Z,4.05
2022-10-23T01:30:37.767Z,4.05
2022-10-23T01:32:39.648Z,4.05
2022-10-23T01:34:41.036Z,4.05
2022-10-23T01:36:42.682Z,4.04
2022-10-23T01:40:45.580Z,4.04
2022-10-23T01:42:47.489Z,4.05
2022-10-23T01:44:49.357Z,4.04
2022-10-23T01:46:50.609Z,4.04
2022-10-23T01:48:51.879Z,4.04
2022-10-23T01:50:53.593Z,4.04
2022-10-23T01:52:55.030Z,4.04
2022-10-23T01:56:57.672Z,4.04
2022-10-23T01:58:59.511Z,4.04
2022-10-23T02:01:00.483Z,4.04
2022-10-23T02:03:01.936Z,4.04
2022-10-23T02:05:03.450Z,4.04
2022-10-23T02:07:04.541Z,4.04
2022-10-23T02:09:05.648Z,4.04
2022-10-23T02:13:08.583Z,4.04
2022-10-23T02:15:10.422Z,4.04
2022-10-23T02:17:12.151Z,4.04
2022-10-23T02:19:13.566Z,4.04
2022-10-23T02:23:15.905Z,4.04
2022-10-23T02:25:17.080Z,4.04
2022-10-23T02:29:19.642Z,4.04
2022-10-23T02:31:21.459Z,4.04
2022-10-23T02:33:23.172Z,4.04
2022-10-23T02:35:25.070Z,4.04
2022-10-23T02:39:28.149Z,4.04
2022-10-23T02:41:29.564Z,4.04
2022-10-23T02:43:31.317Z,4.04
2022-10-23T02:45:32.309Z,4.04
2022-10-23T02:47:33.251Z,4.04
2022-10-23T02:49:34.746Z,4.04
2022-10-23T02:51:36.216Z,4.04
2022-10-23T02:55:39.789Z,4.03
2022-10-23T02:57:41.153Z,4.03
2022-10-23T02:59:42.422Z,4.03
2022-10-23T03:00:26.301Z,4.03
2022-10-23T03:02:28.274Z,4.03
2022-10-23T03:04:29.298Z,4.03
2022-10-23T03:06:30.962Z,4.03
2022-10-23T03:08:32.690Z,4.03
2022-10-23T03:10:33.570Z,4.03
2022-10-23T03:12:35.205Z,4.03
2022-10-23T03:16:38.183Z,4.03
2022-10-23T03:18:39.218Z,4.03
2022-10-23T03:22:45.416Z,4.03
2022-10-23T03:24:43.062Z,4.03
2022-10-23T03:26:44.871Z,4.03
2022-10-23T03:28:46.460Z,4.03
2022-10-23T03:32:49.674Z,4.03
2022-10-23T03:34:50.962Z,4.03
2022-10-23T03:36:52.667Z,4.03
2022-10-23T03:38:54.565Z,4.03
2022-10-23T03:42:57.825Z,4.03
2022-10-23T03:44:58.833Z,4.02
2022-10-23T03:47:00.090Z,4.02
2022-10-23T03:49:01.556Z,4.02
2022-10-23T03:51:03.438Z,4.02
2022-10-23T03:53:04.589Z,4.02
2022-10-23T03:55:06.203Z,4.02
2022-10-23T03:59:09.330Z,4.02
2022-10-23T04:01:11.285Z,4.02
2022-10-23T04:03:13.150Z,4.02
2022-10-23T04:05:14.370Z,4.02
2022-10-23T04:07:16.102Z,4.02
2022-10-23T04:09:17.588Z,4.02
2022-10-23T04:11:19.544Z,4.02
2022-10-23T04:15:22.679Z,4.02
2022-10-23T04:17:24.481Z,4.02
2022-10-23T04:19:26.111Z,4.02
2022-10-23T04:21:28.095Z,4.02
2022-10-23T04:25:30.562Z,4.02
2022-10-23T04:27:32.411Z,4.02
2022-10-23T04:29:33.939Z,4.02
2022-10-23T04:31:35.163Z,4.02
2022-10-23T04:33:36.467Z,4.02
2022-10-23T04:35:38.371Z,4.02
2022-10-23T04:37:39.553Z,4.02
2022-10-23T04:41:41.815Z,4.02
2022-10-23T04:43:43.312Z,4.02
2022-10-23T04:45:44.910Z,4.02
2022-10-23T04:47:45.929Z,4.02
2022-10-23T04:49:47.372Z,4.02
2022-10-23T04:51:49.216Z,4.01
2022-10-23T04:53:50.829Z,4.02
2022-10-23T04:57:53.842Z,4.02
2022-10-23T04:59:55.400Z,4.02
2022-10-23T05:01:57.329Z,4.02
2022-10-23T05:03:59.244Z,4.01
2022-10-23T05:06:00.269Z,4.01
2022-10-23T05:08:01.293Z,4.01
2022-10-23T05:10:03.242Z,4.01
2022-10-23T05:14:06.027Z,4.01
2022-10-23T05:16:07.765Z,4.02
2022-10-23T05:18:09.390Z,4.01
2022-10-23T05:20:10.909Z,4.02
2022-10-23T05:24:13.286Z,4.01
2022-10-23T05:26:14.679Z,4.01
2022-10-23T05:28:16.539Z,4.01
2022-10-23T05:30:18.561Z,4.01
2022-10-23T05:32:22.296Z,4.01
2022-10-23T05:34:20.752Z,4.01
2022-10-23T05:36:22.330Z,4.01
2022-10-23T05:40:25.128Z,4.01
2022-10-23T05:42:27.005Z,4.01
2022-10-23T05:44:28.176Z,4.01
2022-10-23T05:46:29.262Z,4.01
2022-10-23T05:48:34.504Z,4.01
2022-10-23T05:50:32.321Z,4.01
2022-10-23T05:52:33.649Z,4.01
2022-10-23T05:56:36.864Z,4.01
2022-10-23T05:58:38.736Z,4.01
2022-10-23T06:00:40.353Z,4
2022-10-23T06:02:42.126Z,4
2022-10-23T06:06:45.255Z,4
2022-10-23T06:08:46.322Z,4
2022-10-23T06:12:48.449Z,4
2022-10-23T06:14:49.499Z,4
2022-10-23T06:16:50.567Z,4
2022-10-23T06:18:52.008Z,4
2022-10-23T06:22:55.863Z,4
2022-10-23T06:24:56.842Z,4
2022-10-23T06:28:59.894Z,4
2022-10-23T06:31:01.665Z,4
2022-10-23T06:33:03.377Z,4
2022-10-23T06:35:04.013Z,4
2022-10-23T06:39:06.426Z,4
2022-10-23T06:41:08.146Z,4
2022-10-23T06:43:09.229Z,4
2022-10-23T06:45:11.115Z,4
2022-10-23T06:49:13.708Z,4
2022-10-23T06:51:14.810Z,4.02
2022-10-23T06:53:16.730Z,4.02
2022-10-23T06:55:17.908Z,4.02
2022-10-23T06:57:19.437Z,4.01
2022-10-23T07:01:22.006Z,4.01
2022-10-23T07:05:24.229Z,4.01
2022-10-23T07:07:26.015Z,4.01
2022-10-23T07:09:27.736Z,4.01
2022-10-23T07:11:29.046Z,4.01
2022-10-23T07:13:30.969Z,4.01
2022-10-23T07:15:32.531Z,4.01
2022-10-23T07:17:33.615Z,4.01
2022-10-23T07:21:36.417Z,4.02
2022-10-23T07:23:37.456Z,4.02
2022-10-23T07:25:39.226Z,4.02
2022-10-23T07:27:40.981Z,4.02
2022-10-23T07:29:42.501Z,4.03
2022-10-23T07:31:44.346Z,4.02
2022-10-23T07:33:45.999Z,4.03
2022-10-23T07:37:48.839Z,4.04
2022-10-23T07:39:50.223Z,4.04
2022-10-23T07:41:51.637Z,4.04
2022-10-23T07:43:52.919Z,4.05
2022-10-23T07:47:55.941Z,4.07
2022-10-23T07:49:57.021Z,4.08
2022-10-23T07:54:00.445Z,4.08
2022-10-23T07:56:01.906Z,4.08
2022-10-23T07:58:03.741Z,4.09
2022-10-23T08:02:06.859Z,4.1
2022-10-23T08:04:08.212Z,4.1
2022-10-23T08:06:09.192Z,4.1
2022-10-23T08:08:10.529Z,4.11
2022-10-23T08:10:11.781Z,4.11
2022-10-23T08:12:13.445Z,4.12
2022-10-23T08:14:14.743Z,4.12
2022-10-23T08:16:15.638Z,4.12
2022-10-23T08:20:19.148Z,4.13
2022-10-23T08:22:20.113Z,4.1
2022-10-23T08:24:21.915Z,4.1
2022-10-23T08:26:22.896Z,4.1
2022-10-23T08:28:23.791Z,4.1
2022-10-23T08:30:25.688Z,4.1
2022-10-23T08:36:29.794Z,4.13
2022-10-23T08:38:31.355Z,4.14
2022-10-23T08:40:32.334Z,4.14
2022-10-23T08:42:33.698Z,4.14
2022-10-23T08:44:35.216Z,4.14
2022-10-23T08:46:36.824Z,4.15
2022-10-23T08:48:38.294Z,4.15
2022-10-23T08:52:41.253Z,4.16
2022-10-23T08:54:41.991Z,4.16
2022-10-23T08:56:43.283Z,4.16
2022-10-23T08:58:44.321Z,4.16
2022-10-23T09:02:46.606Z,4.17
2022-10-23T09:04:47.329Z,4.17
2022-10-23T09:06:48.253Z,4.17
2022-10-23T09:08:50.139Z,4.17
2022-10-23T09:10:51.621Z,4.18
2022-10-23T09:12:52.765Z,4.18
2022-10-23T09:14:53.956Z,4.18
2022-10-23T09:18:56.032Z,4.18
2022-10-23T09:20:56.990Z,4.18
2022-10-23T09:22:58.695Z,4.19
2022-10-23T09:27:01.189Z,4.19
2022-10-23T09:31:03.776Z,4.19
2022-10-23T09:33:04.737Z,4.19
2022-10-23T09:35:05.697Z,4.19
2022-10-23T09:37:07.054Z,4.19
2022-10-23T09:39:07.961Z,4.19
2022-10-23T09:41:09.014Z,4.19
2022-10-23T09:43:10.806Z,4.19
2022-10-23T09:45:12.251Z,4.19
2022-10-23T09:47:57.149Z,4.19
2022-10-23T09:49:58.023Z,4.19
2022-10-23T09:51:59.627Z,4.2
2022-10-23T09:56:01.618Z,4.2
2022-10-23T09:58:03.287Z,4.2
2022-10-23T10:00:04.461Z,4.2
2022-10-23T10:02:06.238Z,4.2
2022-10-23T10:06:09.363Z,4.2
2022-10-23T10:08:10.842Z,4.2
2022-10-23T10:10:12.624Z,4.2
2022-10-23T10:12:13.503Z,4.2
2022-10-23T10:14:14.651Z,4.2
2022-10-23T10:16:15.927Z,4.2
2022-10-23T10:18:16.815Z,4.2
2022-10-23T10:20:18.142Z,4.2
2022-10-23T10:24:21.006Z,4.2
2022-10-23T10:26:22.613Z,4.2
2022-10-23T10:28:24.048Z,4.2
2022-10-23T10:30:25.023Z,4.2
2022-10-23T10:32:27.043Z,4.2
2022-10-23T10:34:28.211Z,4.2
2022-10-23T10:38:31.347Z,4.19
2022-10-23T10:40:32.814Z,4.19
2022-10-23T10:42:34.520Z,4.19
2022-10-23T10:44:36.271Z,4.19
2022-10-23T10:46:37.592Z,4.19
2022-10-23T10:48:38.489Z,4.19
2022-10-23T10:52:44.237Z,4.19
2022-10-23T10:56:43.712Z,4.19
2022-10-23T10:58:44.692Z,4.18
2022-10-23T11:00:46.014Z,4.18
2022-10-23T11:04:49.698Z,4.18
2022-10-23T11:06:50.945Z,4.18
2022-10-23T11:08:57.784Z,4.18
2022-10-23T11:10:53.759Z,4.18
2022-10-23T11:12:54.679Z,4.18
2022-10-23T11:14:56.016Z,4.18
2022-10-23T11:16:57.816Z,4.18
2022-10-23T11:21:00.475Z,4.18
2022-10-23T11:23:01.484Z,4.17
2022-10-23T11:25:02.375Z,4.18
2022-10-23T11:27:03.348Z,4.18
2022-10-23T11:29:04.914Z,4.18
2022-10-23T11:31:10.891Z,4.18
2022-10-23T11:33:08.007Z,4.17
2022-10-23T11:37:10.088Z,4.18
2022-10-23T11:39:10.984Z,4.18
2022-10-23T11:41:12.707Z,4.18
2022-10-23T11:43:13.525Z,4.17
2022-10-23T11:47:15.566Z,4.17
2022-10-23T11:49:17.034Z,4.17
2022-10-23T11:53:20.238Z,4.17
2022-10-23T11:55:20.849Z,4.17
2022-10-23T11:57:22.101Z,4.17
2022-10-23T11:59:23.694Z,4.17
2022-10-23T12:03:26.333Z,4.17
2022-10-23T12:05:27.937Z,4.17
2022-10-23T12:07:29.423Z,4.17
2022-10-23T12:09:30.293Z,4.17
2022-10-23T12:11:31.317Z,4.17
2022-10-23T12:13:32.659Z,4.17
2022-10-23T12:15:33.671Z,4.17
2022-10-23T12:19:36.555Z,4.17
2022-10-23T12:21:38.113Z,4.17
2022-10-23T12:23:40.465Z,4.17
2022-10-23T12:25:40.959Z,4.17
2022-10-23T12:29:44.017Z,4.17
2022-10-23T12:31:47.007Z,4.17
2022-10-23T12:33:46.593Z,4.17
2022-10-23T12:35:48.285Z,4.17
2022-10-23T12:37:49.816Z,4.17
2022-10-23T12:39:51.283Z,4.17
2022-10-23T12:41:53.077Z,4.17
2022-10-23T12:45:55.793Z,4.16
2022-10-23T12:47:56.960Z,4.16
2022-10-23T12:51:59.167Z,4.17
2022-10-23T12:54:00.044Z,4.16
2022-10-23T12:56:01.499Z,4.16
2022-10-23T12:58:02.675Z,4.16
2022-10-23T13:02:04.938Z,4.16
2022-10-23T13:04:05.845Z,4.17
2022-10-23T13:06:07.206Z,4.16
2022-10-23T13:08:08.536Z,4.16
2022-10-23T13:10:10.178Z,4.16
2022-10-23T13:12:11.034Z,4.16
2022-10-23T13:14:11.829Z,4.16
2022-10-23T13:18:14.792Z,4.16
2022-10-23T13:20:16.055Z,4.16
2022-10-23T13:22:17.254Z,4.16
2022-10-23T13:24:18.508Z,4.16
2022-10-23T13:28:20.476Z,4.16
2022-10-23T13:30:21.311Z,4.16
2022-10-23T13:34:23.154Z,4.16
2022-10-23T13:36:24.539Z,4.16
2022-10-23T13:38:26.346Z,4.16
2022-10-23T13:40:27.234Z,4.16
2022-10-23T13:44:30.500Z,4.16
2022-10-23T13:46:32.167Z,4.16
2022-10-23T13:50:34.396Z,4.16
2022-10-23T13:52:35.576Z,4.15
2022-10-23T13:54:36.960Z,4.16
2022-10-23T13:56:38.258Z,4.16
2022-10-23T14:00:41.587Z,4.16
2022-10-23T14:02:43.571Z,4.15
2022-10-23T14:04:44.420Z,4.16
2022-10-23T14:06:45.700Z,4.16
2022-10-23T14:10:49.169Z,4.15
2022-10-23T14:12:50.326Z,4.15
2022-10-23T14:14:51.808Z,4.15
2022-10-23T14:16:53.180Z,4.15
2022-10-23T14:18:54.202Z,4.15
2022-10-23T14:20:55.509Z,4.15
2022-10-23T14:22:56.713Z,4.15
2022-10-23T14:24:58.419Z,4.15
2022-10-23T14:26:59.376Z,4.15
2022-10-23T14:29:02.451Z,4.15
2022-10-23T14:33:03.630Z,4.15
2022-10-23T14:35:04.594Z,4.15
2022-10-23T14:37:08.643Z,4.15
2022-10-23T14:39:07.710Z,4.15
2022-10-23T14:43:10.738Z,4.14
2022-10-23T14:45:12.077Z,4.15
2022-10-23T14:47:12.932Z,4.15
2022-10-23T14:49:14.287Z,4.14
2022-10-23T14:51:15.469Z,4.14
2022-10-23T14:53:17.275Z,4.14
2022-10-23T14:55:18.660Z,4.14
2022-10-23T14:59:30.080Z,4.15
2022-10-23T15:01:22.807Z,4.14
2022-10-23T15:05:25.063Z,4.14
2022-10-23T15:07:26.322Z,4.14
2022-10-23T15:09:28.136Z,4.14
2022-10-23T15:11:29.060Z,4.14
2022-10-23T15:15:32.069Z,4.14
2022-10-23T15:17:33.232Z,4.14
2022-10-23T15:19:34.478Z,4.14
2022-10-23T15:21:36.238Z,4.14
2022-10-23T15:23:37.470Z,4.14
2022-10-23T15:25:38.944Z,4.14
2022-10-23T15:27:40.519Z,4.14
2022-10-23T15:31:42.597Z,4.14
2022-10-23T15:33:43.777Z,4.14
2022-10-23T15:35:45.155Z,4.14
2022-10-23T15:37:46.918Z,4.14
2022-10-23T15:41:49.252Z,4.14
2022-10-23T15:45:51.456Z,4.14
2022-10-23T15:47:52.694Z,4.14
2022-10-23T15:49:53.736Z,4.14
2022-10-23T15:51:54.974Z,4.14
2022-10-23T15:53:55.840Z,4.13
2022-10-23T15:57:57.831Z,4.13
2022-10-23T15:59:59.427Z,4.14
2022-10-23T16:02:01.197Z,4.13
2022-10-23T16:04:02.326Z,4.13
2022-10-23T16:06:03.678Z,4.14
2022-10-23T16:08:05.299Z,4.13
2022-10-23T16:10:06.600Z,4.13
2022-10-23T16:14:08.785Z,4.13
2022-10-23T16:16:10.411Z,4.13
2022-10-23T16:18:11.555Z,4.13
2022-10-23T16:20:12.618Z,4.13
2022-10-23T16:24:15.508Z,4.13
2022-10-23T16:26:16.477Z,4.13
2022-10-23T16:28:17.309Z,4.13
2022-10-23T16:30:19.067Z,4.13
2022-10-23T16:31:02.783Z,4.13
2022-10-23T16:33:03.870Z,4.13
2022-10-23T16:35:06.245Z,4.13
2022-10-23T16:37:06.443Z,4.12
2022-10-23T16:39:08.171Z,4.13
2022-10-23T16:41:09.103Z,4.13
2022-10-23T16:43:10.246Z,4.13
2022-10-23T16:45:11.878Z,4.12
2022-10-23T16:47:13.497Z,4.12
2022-10-23T16:51:16.370Z,4.13
2022-10-23T16:53:17.275Z,4.12
2022-10-23T16:55:18.680Z,4.12
2022-10-23T16:57:19.794Z,4.12
2022-10-23T16:59:20.661Z,4.12
2022-10-23T17:01:22.147Z,4.12
2022-10-23T17:03:23.316Z,4.12
2022-10-23T17:07:26.113Z,4.12
2022-10-23T17:09:27.284Z,4.12
2022-10-23T17:11:28.499Z,4.12
2022-10-23T17:13:30.259Z,4.12
2022-10-23T17:17:32.550Z,4.12
2022-10-23T17:19:44.462Z,4.12
2022-10-23T17:23:36.117Z,4.12
2022-10-23T17:25:37.778Z,4.12
2022-10-23T17:27:39.474Z,4.12
2022-10-23T17:29:40.739Z,4.12
2022-10-23T17:33:43.484Z,4.12
2022-10-23T17:35:44.923Z,4.12
2022-10-23T17:39:47.783Z,4.12
2022-10-23T17:41:48.671Z,4.12
2022-10-23T17:43:49.622Z,4.12
2022-10-23T17:45:51.004Z,4.12
2022-10-23T17:49:53.977Z,4.12
2022-10-23T17:51:55.459Z,4.12
2022-10-23T17:53:56.413Z,4.12
2022-10-23T17:55:57.967Z,4.12
2022-10-23T17:59:59.897Z,4.12
2022-10-23T18:02:01.788Z,4.12
2022-10-23T18:06:04.328Z,4.12
2022-10-23T18:08:05.201Z,4.12
2022-10-23T18:10:07.057Z,4.11
2022-10-23T18:12:08.343Z,4.11
2022-10-23T18:16:11.765Z,4.11
2022-10-23T18:18:12.644Z,4.11
2022-10-23T18:20:13.817Z,4.11
2022-10-23T18:22:15.504Z,4.11
2022-10-23T18:24:16.510Z,4.11
2022-10-23T18:26:17.475Z,4.11
2022-10-23T18:28:18.262Z,4.11
2022-10-23T18:32:20.920Z,4.11
2022-10-23T18:34:22.533Z,4.11
2022-10-23T18:36:24.254Z,4.11
2022-10-23T18:38:25.955Z,4.11
2022-10-23T18:40:27.844Z,4.11
2022-10-23T18:42:28.457Z,4.11
2022-10-23T18:44:30.209Z,4.11
2022-10-23T18:48:32.374Z,4.11
2022-10-23T18:50:33.288Z,4.11
2022-10-23T18:52:34.981Z,4.11
2022-10-23T18:54:36.359Z,4.11
2022-10-23T18:58:39.891Z,4.1
2022-10-23T19:00:41.531Z,4.1
2022-10-23T19:04:44.341Z,4.1
2022-10-23T19:06:45.802Z,4.1
2022-10-23T19:08:46.776Z,4.1
2022-10-23T19:10:48.133Z,4.1
2022-10-23T19:14:51.143Z,4.1
2022-10-23T19:16:52.525Z,4.1
2022-10-23T19:18:54.307Z,4.1
2022-10-23T19:20:55.774Z,4.1
2022-10-23T19:22:56.778Z,4.1
2022-10-23T19:24:58.588Z,4.1
2022-10-23T19:27:00.145Z,4.1
2022-10-23T19:31:02.318Z,4.1
2022-10-23T19:33:03.745Z,4.1
2022-10-23T19:37:06.160Z,4.1
2022-10-23T19:39:07.144Z,4.1
2022-10-23T19:41:08.821Z,4.1
2022-10-23T19:43:10.323Z,4.1
2022-10-23T19:45:11.759Z,4.1
2022-10-23T19:47:13.464Z,4.1
2022-10-23T19:49:14.601Z,4.1
2022-10-23T19:51:15.800Z,4.1
2022-10-23T19:53:16.947Z,4.1
2022-10-23T19:57:20.583Z,4.1
2022-10-23T19:59:20.606Z,4.1
2022-10-23T20:03:23.680Z,4.1
2022-10-23T20:05:24.832Z,4.1
2022-10-23T20:09:26.929Z,4.1
2022-10-23T20:13:29.421Z,4.1
2022-10-23T20:15:30.538Z,4.09
2022-10-23T20:17:31.820Z,4.1
2022-10-23T20:19:33.003Z,4.09
2022-10-23T20:21:34.101Z,4.09
2022-10-23T20:23:35.915Z,4.09
2022-10-23T20:25:37.322Z,4.09
2022-10-23T20:29:39.794Z,4.09
2022-10-23T20:31:41.521Z,4.09
2022-10-23T20:33:42.560Z,4.09
2022-10-23T20:35:43.601Z,4.09
2022-10-23T20:39:46.723Z,4.09
2022-10-23T20:41:48.486Z,4.09
2022-10-23T20:43:49.397Z,4.09
2022-10-23T20:45:50.262Z,4.09
2022-10-23T20:47:51.471Z,4.09
2022-10-23T20:49:52.856Z,4.09
2022-10-23T20:51:55.130Z,4.09
2022-10-23T20:55:58.040Z,4.09
2022-10-23T20:57:59.828Z,4.09
2022-10-23T21:00:00.692Z,4.09
2022-10-23T21:02:02.181Z,4.08
2022-10-23T21:04:03.414Z,4.08
2022-10-23T21:06:05.216Z,4.09
2022-10-23T21:08:06.179Z,4.08
2022-10-23T21:12:08.072Z,4.08
2022-10-23T21:14:09.786Z,4.08
2022-10-23T21:16:10.935Z,4.08
2022-10-23T21:18:19.145Z,4.08
2022-10-23T21:20:13.421Z,4.08
2022-10-23T21:22:15.232Z,4.08
2022-10-23T21:24:16.382Z,4.08
2022-10-23T21:28:19.785Z,4.08
2022-10-23T21:30:20.816Z,4.08
2022-10-23T21:32:22.254Z,4.08
2022-10-23T21:34:23.115Z,4.08
2022-10-23T21:38:25.902Z,4.08
2022-10-23T21:40:27.077Z,4.08
2022-10-23T21:44:29.355Z,4.08
2022-10-23T21:46:30.856Z,4.08
2022-10-23T21:48:32.351Z,4.08
2022-10-23T21:50:34.171Z,4.08
2022-10-23T21:54:36.951Z,4.08
2022-10-23T21:56:38.440Z,4.08
2022-10-23T21:58:39.965Z,4.08
2022-10-23T22:00:40.912Z,4.08
2022-10-23T22:04:43.379Z,4.08
2022-10-23T22:06:44.357Z,4.08
2022-10-23T22:08:46.074Z,4.08
2022-10-23T22:10:47.779Z,4.07
2022-10-23T22:12:49.347Z,4.07
2022-10-23T22:14:50.993Z,4.08
2022-10-23T22:16:52.343Z,4.07
2022-10-23T22:20:57.217Z,4.07
2022-10-23T22:22:56.376Z,4.07
2022-10-23T22:24:57.382Z,4.07
2022-10-23T22:26:59.044Z,4.07
2022-10-23T22:29:00.086Z,4.07
2022-10-23T22:31:01.226Z,4.07
2022-10-23T22:33:02.333Z,4.07
2022-10-23T22:35:03.355Z,4.07
2022-10-23T22:37:05.121Z,4.07
2022-10-23T22:39:06.846Z,4.07
2022-10-23T22:41:08.502Z,4.07
2022-10-23T22:43:10.134Z,4.07
2022-10-23T22:45:11.168Z,4.07
2022-10-23T22:47:12.926Z,4.07
2022-10-23T22:49:13.957Z,4.07
2022-10-23T22:53:15.999Z,4.07
2022-10-23T22:55:17.836Z,4.06
2022-10-23T22:57:19.242Z,4.07
2022-10-23T22:59:20.837Z,4.07
2022-10-23T23:03:23.838Z,4.07
2022-10-23T23:05:25.599Z,4.07
2022-10-23T23:07:27.203Z,4.06
2022-10-23T23:09:28.340Z,4.07
2022-10-23T23:11:30.593Z,4.07
2022-10-23T23:13:30.847Z,4.06
2022-10-23T23:15:32.193Z,4.06
2022-10-23T23:18:17.865Z,4.06
2022-10-23T23:20:18.875Z,4.06
2022-10-23T23:22:20.104Z,4.06
2022-10-23T23:24:21.528Z,4.06
2022-10-23T23:26:22.758Z,4.06
2022-10-23T23:30:25.398Z,4.06
2022-10-23T23:32:26.736Z,4.06
2022-10-23T23:34:28.458Z,4.06
2022-10-23T23:36:29.816Z,4.06
2022-10-23T23:40:32.763Z,4.06
2022-10-23T23:42:33.911Z,4.06
2022-10-23T23:44:38.920Z,4.06
2022-10-23T23:46:37.049Z,4.06
2022-10-23T23:48:38.382Z,4.06
2022-10-23T23:50:40.025Z,4.06
2022-10-23T23:52:41.266Z,4.06
2022-10-23T23:56:43.972Z,4.06
2022-10-23T23:58:45.507Z,4.06
